Venus Seven — H9RN — position and weather

sailwx.info

Track history (hours):
 
Tides and Currents Weather Stations Pressure Air Temp Water Temp Dewpoint Dewpoint Depression Visibility Wind Speed Wind Dir Waves Ship Positions

Venus Seven

Last reported at 2017-Mar-26 01:32 UTC. Time now 2017-Mar-26 01:41 UTC.
Position N 34°38' E 135°25'.

Length 93 m; draft 4 m.

Type: Cargo ship. MMSI: 353405000.

Date/timePositionNaut miles runAvg speedWind from/ knotsBaromVisibWave heightAir tempDewpointWater temp
2017-Mar-26 01:32N 34°38' E 135°25'0 0.0
2017-Mar-26 00:32N 34°38' E 135°25'0 0.0
2017-Mar-25 23:30N 34°38' E 135°25'0 0.0
2017-Mar-25 22:30N 34°38' E 135°25'0 0.0
2017-Mar-25 21:24N 34°38' E 135°25'0 0.0
2017-Mar-25 20:30N 34°38' E 135°25'0 0.0
2017-Mar-25 19:30N 34°38' E 135°25'0 0.0
2017-Mar-25 18:18N 34°38' E 135°25'0 0.0
2017-Mar-25 17:30N 34°38' E 135°25'0 0.0
2017-Mar-25 16:30N 34°38' E 135°25'0 0.0
2017-Mar-25 15:30N 34°38' E 135°25'0 0.0
2017-Mar-25 14:30N 34°38' E 135°25'0 0.0
2017-Mar-25 13:30N 34°38' E 135°25'0 0.0
2017-Mar-25 12:30N 34°38' E 135°25'0 0.0
2017-Mar-25 11:30N 34°38' E 135°25'0 0.0
2017-Mar-25 10:30N 34°38' E 135°25'0 0.0
2017-Mar-25 09:30N 34°38' E 135°25'0 0.0
2017-Mar-25 08:30N 34°38' E 135°25'0 0.0
2017-Mar-25 07:24N 34°38' E 135°25'0 0.0
2017-Mar-25 06:30N 34°38' E 135°25'0 0.0
2017-Mar-25 05:24N 34°38' E 135°25'0 0.0
2017-Mar-25 04:30N 34°38' E 135°25'0 0.0
2017-Mar-25 03:30N 34°38' E 135°25'0 0.0
2017-Mar-25 02:24N 34°38' E 135°25'0 0.0
2017-Mar-25 01:30N 34°38' E 135°25'0 0.0
2017-Mar-25 00:26N 34°38' E 135°25'0 0.0
2017-Mar-24 23:23N 34°38' E 135°25'0 0.0
2017-Mar-24 22:29N 34°38' E 135°25'0 0.0
2017-Mar-24 21:17N 34°38' E 135°25'0 0.0
2017-Mar-24 20:29N 34°38' E 135°25'0 0.0
2017-Mar-24 19:29N 34°38' E 135°25'0 0.0
2017-Mar-24 18:29N 34°38' E 135°25'0 0.0
2017-Mar-24 17:05N 34°38' E 135°25'0 0.0
2017-Mar-24 16:23N 34°38' E 135°25'0 0.0
2017-Mar-24 15:23N 34°38' E 135°25'0 0.0
2017-Mar-24 14:29N 34°38' E 135°25'0 0.0
2017-Mar-24 13:29N 34°38' E 135°25'0 0.0
2017-Mar-24 12:22N 34°38' E 135°25'0 0.0
2017-Mar-24 11:28N 34°38' E 135°25'0 0.1
2017-Mar-24 10:28N 34°38' E 135°25'0 0.1
2017-Mar-24 09:28N 34°38' E 135°25'0 0.0
2017-Mar-24 08:28N 34°38' E 135°25'0 0.0
2017-Mar-24 07:28N 34°38' E 135°25'0 0.0
2017-Mar-24 06:28N 34°38' E 135°25'0 0.0
2017-Mar-24 05:28N 34°38' E 135°25'0 0.0
2017-Mar-24 04:28N 34°38' E 135°25'0 0.0
2017-Mar-24 03:28N 34°38' E 135°25'0 0.0
2017-Mar-24 02:28N 34°38' E 135°25'0 0.0
2017-Mar-24 01:28N 34°38' E 135°25'0 0.0
2017-Mar-24 00:28N 34°38' E 135°25'3 2.9
2017-Mar-23 23:33N 34°37' E 135°22'0 0.0
2017-Mar-23 22:09N 34°37' E 135°22'0 0.0
2017-Mar-23 20:27N 34°37' E 135°22'0 0.0
2017-Mar-23 19:20N 34°37' E 135°22'0 0.0
2017-Mar-23 18:32N 34°37' E 135°22'0 0.0
2017-Mar-23 17:26N 34°37' E 135°22'0 0.0
2017-Mar-23 16:32N 34°37' E 135°22'0 0.0
2017-Mar-23 15:26N 34°37' E 135°22'0 0.0
2017-Mar-23 14:33N 34°37' E 135°22'0 0.1
2017-Mar-23 13:33N 34°37' E 135°22'1313.1
2017-Mar-23 12:33N 34°35' E 135°06'10 0.4
2017-Mar-22 10:33N 34°36' E 134°54'1211.8
2017-Mar-22 09:32N 34°36' E 135°08'1212.6
2017-Mar-22 08:33N 34°38' E 135°23'1 1.4
2017-Mar-22 07:32N 34°38' E 135°25'0 0.0
2017-Mar-22 06:20N 34°38' E 135°25'0 0.0
2017-Mar-22 05:08N 34°38' E 135°25'0 0.0
2017-Mar-22 04:32N 34°38' E 135°25'0 0.0
2017-Mar-22 03:32N 34°38' E 135°25'0 0.0
2017-Mar-22 02:32N 34°38' E 135°25'1 1.4
2017-Mar-22 01:33N 34°38' E 135°23'1211.8
2017-Mar-22 00:33N 34°30' E 135°13'1311.7
2017-Mar-21 23:29N 34°20' E 135°02'1011.0
2017-Mar-21 22:33N 34°11' E 134°59'1411.7
2017-Mar-21 21:23N 33°57' E 134°59'  
2017-Mar-17 07:18N 22°45' E 120°09'912.5
2017-Mar-17 06:33N 22°37' E 120°15'3 2.5
2017-Mar-17 05:30N 22°36' E 120°18'0 0.0
2017-Mar-17 04:30N 22°36' E 120°18'0 0.0
2017-Mar-17 03:33N 22°36' E 120°18'0 0.0
2017-Mar-17 02:33N 22°36' E 120°18'0 0.0
2017-Mar-17 01:24N 22°36' E 120°18'0 0.0
2017-Mar-16 21:27N 22°36' E 120°18'0 0.0
2017-Mar-16 20:18N 22°36' E 120°18'0 0.0
2017-Mar-16 19:33N 22°36' E 120°18'0 0.0
2017-Mar-16 18:33N 22°36' E 120°18'0 0.0
2017-Mar-16 17:33N 22°36' E 120°18'0 0.0
2017-Mar-16 16:33N 22°36' E 120°18'0 0.0
2017-Mar-16 13:17N 22°36' E 120°18'0 0.0
2017-Mar-16 12:32N 22°36' E 120°18'0 0.0
2017-Mar-16 10:20N 22°36' E 120°18'0 0.0
2017-Mar-16 08:14N 22°36' E 120°18'0 0.0
2017-Mar-16 07:26N 22°36' E 120°18'0 0.0
2017-Mar-16 06:29N 22°36' E 120°18'0 0.0
2017-Mar-16 03:20N 22°36' E 120°18'0 0.0
2017-Mar-16 01:32N 22°36' E 120°18'  
Track history (hours):
 
Tides and Currents Weather Stations Pressure Air Temp Water Temp Dewpoint Dewpoint Depression Visibility Wind Speed Wind Dir Waves Ship Positions

Venus Seven

Last reported at 2017-Mar-26 01:32 UTC. Time now 2017-Mar-26 01:41 UTC.
Position N 34°38' E 135°25'.

Length 93 m; draft 4 m.

Type: Cargo ship. MMSI: 353405000.

Date/timePositionNaut miles runAvg speedWind from/ knotsBaromVisibWave heightAir tempDewpointWater temp
2017-Mar-26 01:32N 34°38' E 135°25'0 0.0
2017-Mar-26 00:32N 34°38' E 135°25'0 0.0
2017-Mar-25 23:30N 34°38' E 135°25'0 0.0
2017-Mar-25 22:30N 34°38' E 135°25'0 0.0
2017-Mar-25 21:24N 34°38' E 135°25'0 0.0
2017-Mar-25 20:30N 34°38' E 135°25'0 0.0
2017-Mar-25 19:30N 34°38' E 135°25'0 0.0
2017-Mar-25 18:18N 34°38' E 135°25'0 0.0
2017-Mar-25 17:30N 34°38' E 135°25'0 0.0
2017-Mar-25 16:30N 34°38' E 135°25'0 0.0
2017-Mar-25 15:30N 34°38' E 135°25'0 0.0
2017-Mar-25 14:30N 34°38' E 135°25'0 0.0
2017-Mar-25 13:30N 34°38' E 135°25'0 0.0
2017-Mar-25 12:30N 34°38' E 135°25'0 0.0
2017-Mar-25 11:30N 34°38' E 135°25'0 0.0
2017-Mar-25 10:30N 34°38' E 135°25'0 0.0
2017-Mar-25 09:30N 34°38' E 135°25'0 0.0
2017-Mar-25 08:30N 34°38' E 135°25'0 0.0
2017-Mar-25 07:24N 34°38' E 135°25'0 0.0
2017-Mar-25 06:30N 34°38' E 135°25'0 0.0
2017-Mar-25 05:24N 34°38' E 135°25'0 0.0
2017-Mar-25 04:30N 34°38' E 135°25'0 0.0
2017-Mar-25 03:30N 34°38' E 135°25'0 0.0
2017-Mar-25 02:24N 34°38' E 135°25'0 0.0
2017-Mar-25 01:30N 34°38' E 135°25'0 0.0
2017-Mar-25 00:26N 34°38' E 135°25'0 0.0
2017-Mar-24 23:23N 34°38' E 135°25'0 0.0
2017-Mar-24 22:29N 34°38' E 135°25'0 0.0
2017-Mar-24 21:17N 34°38' E 135°25'0 0.0
2017-Mar-24 20:29N 34°38' E 135°25'0 0.0
2017-Mar-24 19:29N 34°38' E 135°25'0 0.0
2017-Mar-24 18:29N 34°38' E 135°25'0 0.0
2017-Mar-24 17:05N 34°38' E 135°25'0 0.0
2017-Mar-24 16:23N 34°38' E 135°25'0 0.0
2017-Mar-24 15:23N 34°38' E 135°25'0 0.0
2017-Mar-24 14:29N 34°38' E 135°25'0 0.0
2017-Mar-24 13:29N 34°38' E 135°25'0 0.0
2017-Mar-24 12:22N 34°38' E 135°25'0 0.0
2017-Mar-24 11:28N 34°38' E 135°25'0 0.1
2017-Mar-24 10:28N 34°38' E 135°25'0 0.1
2017-Mar-24 09:28N 34°38' E 135°25'0 0.0
2017-Mar-24 08:28N 34°38' E 135°25'0 0.0
2017-Mar-24 07:28N 34°38' E 135°25'0 0.0
2017-Mar-24 06:28N 34°38' E 135°25'0 0.0
2017-Mar-24 05:28N 34°38' E 135°25'0 0.0
2017-Mar-24 04:28N 34°38' E 135°25'0 0.0
2017-Mar-24 03:28N 34°38' E 135°25'0 0.0
2017-Mar-24 02:28N 34°38' E 135°25'0 0.0
2017-Mar-24 01:28N 34°38' E 135°25'0 0.0
2017-Mar-24 00:28N 34°38' E 135°25'3 2.9
2017-Mar-23 23:33N 34°37' E 135°22'0 0.0
2017-Mar-23 22:09N 34°37' E 135°22'0 0.0
2017-Mar-23 20:27N 34°37' E 135°22'0 0.0
2017-Mar-23 19:20N 34°37' E 135°22'0 0.0
2017-Mar-23 18:32N 34°37' E 135°22'0 0.0
2017-Mar-23 17:26N 34°37' E 135°22'0 0.0
2017-Mar-23 16:32N 34°37' E 135°22'0 0.0
2017-Mar-23 15:26N 34°37' E 135°22'0 0.0
2017-Mar-23 14:33N 34°37' E 135°22'0 0.1
2017-Mar-23 13:33N 34°37' E 135°22'1313.1
2017-Mar-23 12:33N 34°35' E 135°06'10 0.4
2017-Mar-22 10:33N 34°36' E 134°54'1211.8
2017-Mar-22 09:32N 34°36' E 135°08'1212.6
2017-Mar-22 08:33N 34°38' E 135°23'1 1.4
2017-Mar-22 07:32N 34°38' E 135°25'0 0.0
2017-Mar-22 06:20N 34°38' E 135°25'0 0.0
2017-Mar-22 05:08N 34°38' E 135°25'0 0.0
2017-Mar-22 04:32N 34°38' E 135°25'0 0.0
2017-Mar-22 03:32N 34°38' E 135°25'0 0.0
2017-Mar-22 02:32N 34°38' E 135°25'1 1.4
2017-Mar-22 01:33N 34°38' E 135°23'1211.8
2017-Mar-22 00:33N 34°30' E 135°13'1311.7
2017-Mar-21 23:29N 34°20' E 135°02'1011.0
2017-Mar-21 22:33N 34°11' E 134°59'1411.7
2017-Mar-21 21:23N 33°57' E 134°59'  
2017-Mar-17 07:18N 22°45' E 120°09'912.5
2017-Mar-17 06:33N 22°37' E 120°15'3 2.5
2017-Mar-17 05:30N 22°36' E 120°18'0 0.0
2017-Mar-17 04:30N 22°36' E 120°18'0 0.0
2017-Mar-17 03:33N 22°36' E 120°18'0 0.0
2017-Mar-17 02:33N 22°36' E 120°18'0 0.0
2017-Mar-17 01:24N 22°36' E 120°18'0 0.0
2017-Mar-16 21:27N 22°36' E 120°18'0 0.0
2017-Mar-16 20:18N 22°36' E 120°18'0 0.0
2017-Mar-16 19:33N 22°36' E 120°18'0 0.0
2017-Mar-16 18:33N 22°36' E 120°18'0 0.0
2017-Mar-16 17:33N 22°36' E 120°18'0 0.0
2017-Mar-16 16:33N 22°36' E 120°18'0 0.0
2017-Mar-16 13:17N 22°36' E 120°18'0 0.0
2017-Mar-16 12:32N 22°36' E 120°18'0 0.0
2017-Mar-16 10:20N 22°36' E 120°18'0 0.0
2017-Mar-16 08:14N 22°36' E 120°18'0 0.0
2017-Mar-16 07:26N 22°36' E 120°18'0 0.0
2017-Mar-16 06:29N 22°36' E 120°18'0 0.0
2017-Mar-16 03:20N 22°36' E 120°18'0 0.0
2017-Mar-16 01:32N 22°36' E 120°18'  

Dump ship's entire track history